createdAt,value
2023-12-11T00:01:42.644Z,9.80
2023-12-11T00:04:08.933Z,10.77
2023-12-11T00:06:35.278Z,8.87
2023-12-11T00:09:01.467Z,10.47
2023-12-11T00:11:27.672Z,12.43
2023-12-11T00:13:53.822Z,7.87
2023-12-11T00:16:19.974Z,7.90
2023-12-11T00:18:46.325Z,12.57
2023-12-11T00:21:12.551Z,10.47
2023-12-11T00:23:38.701Z,15.97
2023-12-11T00:26:04.852Z,9.20
2023-12-11T00:28:31.036Z,11.53
2023-12-11T00:30:57.267Z,11.97
2023-12-11T00:33:23.532Z,13.13
2023-12-11T00:35:49.703Z,14.20
2023-12-11T00:38:15.868Z,14.93
2023-12-11T00:40:42.017Z,13.43
2023-12-11T00:43:08.232Z,14.03
2023-12-11T00:45:34.468Z,15.23
2023-12-11T00:48:00.795Z,10.93
2023-12-11T00:50:27.006Z,19.20
2023-12-11T00:52:53.167Z,13.33
2023-12-11T00:55:19.310Z,15.17
2023-12-11T00:57:45.610Z,15.70
2023-12-11T01:00:12.223Z,13.40
2023-12-11T01:02:38.427Z,18.80
2023-12-11T01:05:04.639Z,16.17
2023-12-11T01:07:31.158Z,17.63
2023-12-11T01:09:57.647Z,17.03
2023-12-11T01:12:23.892Z,14.77
2023-12-11T01:14:50.056Z,17.50
2023-12-11T01:17:37.231Z,16.87
2023-12-11T01:20:02.509Z,18.10
2023-12-11T01:22:28.764Z,15.13
2023-12-11T01:24:54.945Z,20.03
2023-12-11T01:27:21.174Z,16.13
2023-12-11T01:29:47.386Z,15.53
2023-12-11T01:32:13.551Z,16.90
2023-12-11T01:34:39.782Z,17.23
2023-12-11T01:37:06.068Z,18.53
2023-12-11T01:39:32.349Z,19.53
2023-12-11T01:41:58.542Z,19.57
2023-12-11T01:44:24.776Z,20.00
2023-12-11T01:46:51.058Z,23.17
2023-12-11T01:49:17.355Z,23.73
2023-12-11T01:51:43.551Z,19.00
2023-12-11T01:54:09.705Z,17.53
2023-12-11T01:56:35.859Z,20.23
2023-12-11T01:59:02.052Z,23.83
2023-12-11T02:01:28.334Z,23.13
2023-12-11T02:03:54.677Z,20.87
2023-12-11T02:06:20.946Z,20.13
2023-12-11T02:08:47.113Z,19.53
2023-12-11T02:11:13.265Z,19.37
2023-12-11T02:13:39.419Z,22.70
2023-12-11T02:16:05.669Z,21.10
2023-12-11T02:18:32.036Z,18.17
2023-12-11T02:20:58.242Z,20.23
2023-12-11T02:23:24.425Z,22.20
2023-12-11T02:25:50.609Z,22.77
2023-12-11T02:28:16.842Z,21.00
2023-12-11T02:30:43.025Z,22.87
2023-12-11T02:33:09.262Z,21.43
2023-12-11T02:35:35.444Z,20.20
2023-12-11T02:38:01.622Z,21.50
2023-12-11T02:40:27.781Z,18.17
2023-12-11T02:42:54.022Z,21.67
2023-12-11T02:45:20.206Z,21.50
2023-12-11T02:47:46.461Z,20.30
2023-12-11T02:50:12.682Z,21.93
2023-12-11T02:52:38.901Z,20.67
2023-12-11T02:55:05.114Z,21.53
2023-12-11T02:57:31.481Z,19.67
2023-12-11T02:59:57.803Z,20.57
2023-12-11T03:02:23.959Z,22.23
2023-12-11T03:04:50.140Z,21.60
2023-12-11T03:07:16.380Z,19.70
2023-12-11T03:09:42.642Z,16.30
2023-12-11T03:12:08.838Z,20.57
2023-12-11T03:14:34.984Z,17.83
2023-12-11T03:17:01.147Z,16.10
2023-12-11T03:19:27.440Z,16.47
2023-12-11T03:21:53.644Z,19.43
2023-12-11T03:24:19.851Z,22.50
2023-12-11T03:26:46.002Z,19.73
2023-12-11T03:29:12.150Z,16.93
2023-12-11T03:31:38.366Z,23.23
2023-12-11T03:34:04.586Z,18.93
2023-12-11T03:36:30.869Z,22.77
2023-12-11T03:38:57.070Z,16.07
2023-12-11T03:41:23.261Z,22.03
2023-12-11T03:43:49.424Z,21.97
2023-12-11T03:46:15.623Z,17.43
2023-12-11T03:48:41.931Z,21.43
2023-12-11T03:51:08.240Z,20.80
2023-12-11T03:53:34.395Z,18.33
2023-12-11T03:56:00.557Z,17.57
2023-12-11T03:58:26.740Z,22.93
2023-12-11T04:00:53.020Z,16.67
2023-12-11T04:03:19.270Z,13.67
2023-12-11T04:05:45.441Z,23.43
2023-12-11T04:08:11.630Z,16.83
2023-12-11T04:10:37.790Z,23.57
2023-12-11T04:13:04.110Z,17.67
2023-12-11T04:15:30.305Z,20.57
2023-12-11T04:17:56.545Z,16.37
2023-12-11T04:20:22.732Z,12.53
2023-12-11T04:22:48.902Z,13.77
2023-12-11T04:25:15.091Z,11.33
2023-12-11T04:27:41.275Z,14.63
2023-12-11T04:30:07.510Z,15.10
2023-12-11T04:32:41.329Z,13.53
2023-12-11T04:35:07.543Z,14.47
2023-12-11T04:37:33.803Z,17.07
2023-12-11T04:40:00.067Z,16.60
2023-12-11T04:42:26.321Z,20.43
2023-12-11T04:44:52.497Z,18.57
2023-12-11T04:47:18.694Z,17.63
2023-12-11T04:49:45.052Z,13.43
2023-12-11T04:52:11.475Z,13.47
2023-12-11T04:54:37.780Z,16.17
2023-12-11T04:57:04.032Z,16.13
2023-12-11T04:59:30.273Z,15.70
2023-12-11T05:01:56.959Z,18.37
2023-12-11T05:04:23.732Z,21.97
2023-12-11T05:06:50.027Z,20.07
2023-12-11T05:09:16.270Z,16.70
2023-12-11T05:11:42.507Z,11.47
2023-12-11T05:14:08.736Z,17.17
2023-12-11T05:16:38.105Z,13.13
2023-12-11T05:19:05.002Z,13.80
2023-12-11T05:21:31.332Z,12.13
2023-12-11T05:23:57.535Z,12.37
2023-12-11T05:26:23.772Z,11.27
2023-12-11T05:28:50.004Z,12.40
2023-12-11T05:31:16.345Z,14.50
2023-12-11T05:33:42.692Z,18.37
2023-12-11T05:36:09.079Z,13.03
2023-12-11T05:38:35.254Z,12.40
2023-12-11T05:41:01.523Z,12.90
2023-12-11T05:43:27.772Z,12.53
2023-12-11T05:45:54.014Z,9.10
2023-12-11T05:48:20.400Z,14.30
2023-12-11T05:50:46.712Z,10.87
2023-12-11T05:53:12.876Z,8.23
2023-12-11T05:55:39.121Z,7.63
2023-12-11T05:58:05.339Z,10.90
2023-12-11T06:00:31.725Z,10.33
2023-12-11T06:02:58.013Z,9.90
2023-12-11T06:05:24.251Z,10.73
2023-12-11T06:07:50.465Z,9.53
2023-12-11T06:10:16.700Z,10.07
2023-12-11T06:12:43.449Z,8.70
2023-12-11T06:15:10.667Z,8.40
2023-12-11T06:17:37.399Z,11.43
2023-12-11T06:20:03.723Z,10.90
2023-12-11T06:22:29.917Z,12.40
2023-12-11T06:24:56.175Z,10.47
2023-12-11T06:27:22.573Z,13.73
2023-12-11T06:32:28.932Z,16.33
2023-12-11T06:34:55.369Z,15.67
2023-12-11T06:37:21.742Z,12.33
2023-12-11T06:39:48.184Z,15.73
2023-12-11T06:42:14.366Z,14.40
2023-12-11T06:44:40.520Z,13.53
2023-12-11T06:47:06.703Z,15.27
2023-12-11T06:49:33.086Z,18.60
2023-12-11T06:51:59.325Z,17.00
2023-12-11T06:54:25.511Z,15.13
2023-12-11T06:56:51.799Z,15.93
2023-12-11T06:59:18.252Z,19.03
2023-12-11T07:01:44.560Z,17.20
2023-12-11T07:04:11.258Z,15.40
2023-12-11T07:06:37.563Z,12.57
2023-12-11T07:09:04.061Z,13.00
2023-12-11T07:11:30.268Z,15.90
2023-12-11T07:13:56.632Z,14.63
2023-12-11T07:16:23.203Z,15.30
2023-12-11T07:18:49.526Z,17.37
2023-12-11T07:21:15.759Z,18.40
2023-12-11T07:23:41.981Z,14.87
2023-12-11T07:26:08.185Z,13.03
2023-12-11T07:28:34.355Z,11.53
2023-12-11T07:31:00.580Z,16.93
2023-12-11T07:33:26.888Z,13.47
2023-12-11T07:35:53.107Z,15.70
2023-12-11T07:38:19.333Z,14.47
2023-12-11T07:40:45.554Z,15.50
2023-12-11T07:43:11.772Z,9.77
2023-12-11T07:45:38.462Z,8.57
2023-12-11T07:48:04.717Z,16.47
2023-12-11T07:50:30.942Z,17.33
2023-12-11T07:52:57.119Z,12.53
2023-12-11T07:55:23.314Z,12.37
2023-12-11T07:57:49.601Z,14.43
2023-12-11T08:00:15.802Z,11.00
2023-12-11T08:02:42.056Z,11.23
2023-12-11T08:05:08.317Z,15.07
2023-12-11T08:07:34.859Z,13.37
2023-12-11T08:10:01.349Z,15.47
2023-12-11T08:12:27.689Z,13.67
2023-12-11T08:14:53.909Z,11.57
2023-12-11T08:17:20.072Z,14.73
2023-12-11T08:19:46.526Z,17.07
2023-12-11T08:22:12.868Z,12.73
2023-12-11T08:24:39.228Z,17.10
2023-12-11T08:27:05.508Z,14.03
2023-12-11T08:29:31.731Z,10.40
2023-12-11T08:31:57.911Z,16.67
2023-12-11T08:34:24.245Z,10.13
2023-12-11T08:36:50.532Z,12.53
2023-12-11T08:39:16.740Z,11.50
2023-12-11T08:41:42.955Z,13.00
2023-12-11T08:44:09.151Z,14.97
2023-12-11T08:46:35.406Z,11.70
2023-12-11T08:49:01.756Z,15.60
2023-12-11T08:51:28.023Z,12.17
2023-12-11T08:53:54.280Z,11.00
2023-12-11T08:56:20.522Z,14.20
2023-12-11T08:58:46.736Z,17.53
2023-12-11T09:01:13.099Z,13.40
2023-12-11T09:03:39.391Z,11.00
2023-12-11T09:06:05.648Z,14.17
2023-12-11T09:08:31.873Z,12.87
2023-12-11T09:10:58.128Z,9.63
2023-12-11T09:13:27.392Z,12.10
2023-12-11T09:15:55.393Z,13.07
2023-12-11T09:18:21.744Z,11.30
2023-12-11T09:20:47.976Z,12.23
2023-12-11T09:23:14.192Z,13.67
2023-12-11T09:25:40.401Z,9.67
2023-12-11T09:28:06.659Z,11.57
2023-12-11T09:30:32.884Z,13.50
2023-12-11T09:32:59.142Z,10.30
2023-12-11T09:35:25.555Z,15.80
2023-12-11T09:37:53.899Z,14.93
2023-12-11T09:40:20.324Z,9.80
2023-12-11T09:42:46.701Z,10.90
2023-12-11T09:45:12.994Z,13.50
2023-12-11T09:47:39.295Z,10.37
2023-12-11T09:50:05.610Z,11.27
2023-12-11T09:52:33.120Z,7.77
2023-12-11T09:55:00.794Z,9.97
2023-12-11T09:57:27.014Z,10.70
2023-12-11T09:59:53.197Z,9.57
2023-12-11T10:02:19.596Z,9.03
2023-12-11T10:04:45.955Z,8.93
2023-12-11T10:07:15.071Z,5.67
2023-12-11T10:09:41.316Z,9.87
2023-12-11T10:12:07.638Z,8.43
2023-12-11T10:14:33.830Z,9.33
2023-12-11T10:17:00.004Z,10.90
2023-12-11T10:19:26.395Z,10.17
2023-12-11T10:21:52.752Z,7.73
2023-12-11T10:24:18.947Z,8.43
2023-12-11T10:26:45.127Z,12.43
2023-12-11T10:29:11.303Z,8.43
2023-12-11T10:31:37.492Z,10.47
2023-12-11T10:34:03.859Z,8.20
2023-12-11T10:36:30.161Z,12.50
2023-12-11T10:38:56.354Z,10.50
2023-12-11T10:41:22.567Z,9.27
2023-12-11T10:44:01.534Z,8.90
2023-12-11T10:46:35.086Z,7.80
2023-12-11T10:49:01.542Z,7.17
2023-12-11T10:51:27.895Z,8.27
2023-12-11T10:53:54.151Z,8.93
2023-12-11T10:56:20.485Z,7.23
2023-12-11T10:58:46.786Z,9.50
2023-12-11T11:01:13.037Z,7.13
2023-12-11T11:03:39.395Z,5.23
2023-12-11T11:06:05.694Z,7.20
2023-12-11T11:08:32.004Z,7.63
2023-12-11T11:10:58.239Z,6.53
2023-12-11T11:13:24.545Z,8.47
2023-12-11T11:15:50.781Z,6.10
2023-12-11T11:18:17.086Z,6.83
2023-12-11T11:20:43.305Z,7.83
2023-12-11T11:23:09.589Z,7.87
2023-12-11T11:25:36.489Z,8.03
2023-12-11T11:28:02.817Z,6.53
2023-12-11T11:30:29.041Z,4.37
2023-12-11T11:32:55.319Z,6.07
2023-12-11T11:35:21.550Z,5.50
2023-12-11T11:37:47.753Z,3.73
2023-12-11T11:40:14.072Z,4.90
2023-12-11T11:42:40.385Z,4.80
2023-12-11T11:45:06.655Z,3.70
2023-12-11T11:47:33.201Z,3.27
2023-12-11T11:49:59.737Z,3.67
2023-12-11T11:52:26.003Z,3.70
2023-12-11T11:54:52.251Z,4.07
2023-12-11T11:57:18.441Z,5.80
2023-12-11T11:59:44.628Z,4.70
2023-12-11T12:02:10.806Z,5.57
2023-12-11T12:04:37.041Z,5.70
2023-12-11T12:07:03.297Z,6.20
2023-12-11T12:09:29.499Z,7.63
2023-12-11T12:11:55.677Z,9.70
2023-12-11T12:14:23.031Z,8.70
2023-12-11T12:16:49.404Z,8.77
2023-12-11T12:19:15.696Z,6.70
2023-12-11T12:21:41.963Z,6.17
2023-12-11T12:24:08.171Z,5.10
2023-12-11T12:26:34.429Z,9.80
2023-12-11T12:29:00.635Z,6.77
2023-12-11T12:31:26.872Z,6.40
2023-12-11T12:33:53.579Z,7.07
2023-12-11T12:36:19.849Z,6.80
2023-12-11T12:38:46.027Z,8.90
2023-12-11T12:41:12.222Z,6.77
2023-12-11T12:43:38.378Z,5.33
2023-12-11T12:46:04.680Z,6.43
2023-12-11T12:48:31.016Z,6.97
2023-12-11T12:50:57.318Z,5.27
2023-12-11T12:53:23.511Z,6.50
2023-12-11T12:55:49.697Z,8.77
2023-12-11T12:58:17.936Z,6.83
2023-12-11T13:00:45.109Z,6.03
2023-12-11T13:03:11.414Z,7.57
2023-12-11T13:05:37.701Z,5.43
2023-12-11T13:08:03.917Z,6.80
2023-12-11T13:10:30.162Z,5.93
2023-12-11T13:12:56.403Z,8.40
2023-12-11T13:15:22.676Z,8.10
2023-12-11T13:17:48.912Z,7.13
2023-12-11T13:20:15.175Z,8.33
2023-12-11T13:22:41.469Z,7.13
2023-12-11T13:25:07.712Z,6.07
2023-12-11T13:27:33.933Z,4.73
2023-12-11T13:30:00.232Z,6.70
2023-12-11T13:32:26.571Z,7.47
2023-12-11T13:34:52.942Z,6.27
2023-12-11T13:37:19.205Z,5.20
2023-12-11T13:39:45.453Z,10.43
2023-12-11T13:42:11.713Z,8.20
2023-12-11T13:44:37.903Z,5.63
2023-12-11T13:47:04.088Z,6.67
2023-12-11T13:49:30.364Z,6.47
2023-12-11T13:51:56.684Z,8.53
2023-12-11T13:54:22.871Z,8.13
2023-12-11T13:56:49.299Z,6.83
2023-12-11T13:59:15.503Z,6.03
2023-12-11T14:01:41.787Z,5.50
2023-12-11T14:04:08.076Z,7.00
2023-12-11T14:06:34.304Z,4.87
2023-12-11T14:09:00.506Z,8.90
2023-12-11T14:11:26.713Z,5.07
2023-12-11T14:13:52.877Z,6.43
2023-12-11T14:16:19.152Z,6.13
2023-12-11T14:18:45.428Z,7.73
2023-12-11T14:21:11.682Z,6.97
2023-12-11T14:23:37.890Z,8.00
2023-12-11T14:26:04.294Z,6.17
2023-12-11T14:28:30.551Z,7.67
2023-12-11T14:30:56.785Z,8.63
2023-12-11T14:33:23.146Z,7.40
2023-12-11T14:35:49.484Z,6.20
2023-12-11T14:38:15.709Z,5.83
2023-12-11T14:40:41.881Z,7.57
2023-12-11T14:43:08.150Z,5.93
2023-12-11T14:45:34.351Z,4.63
2023-12-11T14:48:00.584Z,8.87
2023-12-11T14:50:26.839Z,8.73
2023-12-11T14:52:53.080Z,7.60
2023-12-11T14:55:25.125Z,6.53
2023-12-11T14:57:52.387Z,7.77
2023-12-11T15:00:18.613Z,7.97
2023-12-11T15:02:44.921Z,6.93
2023-12-11T15:05:11.201Z,5.63
2023-12-11T15:07:37.563Z,6.77
2023-12-11T15:10:03.837Z,7.40
2023-12-11T15:12:30.101Z,7.47
2023-12-11T15:14:56.617Z,7.63
2023-12-11T15:17:22.831Z,7.07
2023-12-11T15:19:49.175Z,9.13
2023-12-11T15:22:15.620Z,10.17
2023-12-11T15:24:41.862Z,8.87
2023-12-11T15:27:08.226Z,11.50
2023-12-11T15:29:34.430Z,7.27
2023-12-11T15:32:00.744Z,9.40
2023-12-11T15:34:27.105Z,9.90
2023-12-11T15:36:53.382Z,6.90
2023-12-11T15:39:19.632Z,6.83
2023-12-11T15:41:45.836Z,5.43
2023-12-11T15:44:12.053Z,8.57
2023-12-11T15:46:38.266Z,4.10
2023-12-11T15:49:04.724Z,6.17
2023-12-11T15:51:31.128Z,4.20
2023-12-11T15:53:57.324Z,5.40
2023-12-11T15:56:23.529Z,7.40
2023-12-11T15:58:49.707Z,4.00
2023-12-11T16:01:16.340Z,7.77
2023-12-11T16:03:42.775Z,3.53
2023-12-11T16:06:09.077Z,5.23
2023-12-11T16:08:35.337Z,3.60
2023-12-11T16:11:01.540Z,5.50
2023-12-11T16:13:27.796Z,3.50
2023-12-11T16:15:54.055Z,3.17
2023-12-11T16:18:20.424Z,9.27
2023-12-11T16:20:46.649Z,10.23
2023-12-11T16:23:12.880Z,4.67
2023-12-11T16:25:48.036Z,5.80
2023-12-11T16:28:22.146Z,4.97
2023-12-11T16:30:48.538Z,8.33
2023-12-11T16:33:14.881Z,5.33
2023-12-11T16:35:41.149Z,3.83
2023-12-11T16:38:07.335Z,3.30
2023-12-11T16:40:33.599Z,6.53
2023-12-11T16:42:59.892Z,4.27
2023-12-11T16:45:26.102Z,6.10
2023-12-11T16:47:52.334Z,6.43
2023-12-11T16:50:19.750Z,6.43
2023-12-11T16:52:45.977Z,6.40
2023-12-11T16:55:12.182Z,6.60
2023-12-11T16:57:38.849Z,8.87
2023-12-11T17:00:05.040Z,6.60
2023-12-11T17:02:31.425Z,6.17
2023-12-11T17:04:57.967Z,7.80
2023-12-11T17:07:24.291Z,8.00
2023-12-11T17:09:50.547Z,7.13
2023-12-11T17:12:18.902Z,4.97
2023-12-11T17:14:45.081Z,8.00
2023-12-11T17:17:11.288Z,9.00
2023-12-11T17:19:37.510Z,6.50
2023-12-11T17:22:03.885Z,8.37
2023-12-11T17:24:30.110Z,7.43
2023-12-11T17:26:56.290Z,10.00
2023-12-11T17:29:22.482Z,8.77
2023-12-11T17:31:48.678Z,8.57
2023-12-11T17:34:14.897Z,10.97
2023-12-11T17:36:41.210Z,13.70
2023-12-11T17:39:07.415Z,15.33
2023-12-11T17:41:33.626Z,13.53
2023-12-11T17:43:59.796Z,16.90
2023-12-11T17:46:26.000Z,16.30
2023-12-11T17:48:52.312Z,16.63
2023-12-11T17:51:18.551Z,14.93
2023-12-11T17:53:44.719Z,16.80
2023-12-11T17:56:10.909Z,16.00
2023-12-11T17:58:37.081Z,19.60
2023-12-11T18:01:03.398Z,19.50
2023-12-11T18:03:31.764Z,20.70
2023-12-11T18:05:58.026Z,18.90
2023-12-11T18:08:24.277Z,19.40
2023-12-11T18:10:50.476Z,18.47
2023-12-11T18:13:16.706Z,16.77
2023-12-11T18:15:43.112Z,19.60
2023-12-11T18:18:09.421Z,15.93
2023-12-11T18:20:35.720Z,16.50
2023-12-11T18:23:01.922Z,17.40
2023-12-11T18:25:28.142Z,14.87
2023-12-11T18:27:54.428Z,16.53
2023-12-11T18:30:20.629Z,16.47
2023-12-11T18:32:46.927Z,14.60
2023-12-11T18:35:13.165Z,19.63
2023-12-11T18:37:39.399Z,17.93
2023-12-11T18:40:05.606Z,17.93
2023-12-11T18:42:31.875Z,17.23
2023-12-11T18:44:58.078Z,16.20
2023-12-11T18:47:24.527Z,17.13
2023-12-11T18:49:50.894Z,15.33
2023-12-11T18:52:17.155Z,14.77
2023-12-11T18:54:43.420Z,15.77
2023-12-11T18:57:09.652Z,18.37
2023-12-11T18:59:35.843Z,14.50
2023-12-11T19:02:02.233Z,20.97
2023-12-11T19:04:28.607Z,19.10
2023-12-11T19:06:55.011Z,18.03
2023-12-11T19:09:21.206Z,16.90
2023-12-11T19:11:47.394Z,16.77
2023-12-11T19:14:13.581Z,20.70
2023-12-11T19:16:39.768Z,16.73
2023-12-11T19:19:06.068Z,17.20
2023-12-11T19:21:32.358Z,20.43
2023-12-11T19:23:58.533Z,17.40
2023-12-11T19:26:24.699Z,19.43
2023-12-11T19:28:50.883Z,20.50
2023-12-11T19:31:17.124Z,20.23
2023-12-11T19:33:43.416Z,18.50
2023-12-11T19:36:09.728Z,18.07
2023-12-11T19:38:35.945Z,20.97
2023-12-11T19:41:02.155Z,18.63
2023-12-11T19:43:28.377Z,18.77
2023-12-11T19:45:54.640Z,23.10
2023-12-11T19:48:21.054Z,20.47
2023-12-11T19:50:47.383Z,19.37
2023-12-11T19:53:13.585Z,22.13
2023-12-11T19:55:39.815Z,19.43
2023-12-11T19:58:06.048Z,19.23
2023-12-11T20:00:32.258Z,20.40
2023-12-11T20:02:58.494Z,18.17
2023-12-11T20:05:24.711Z,20.40
2023-12-11T20:07:50.913Z,16.47
2023-12-11T20:10:17.210Z,24.57
2023-12-11T20:12:43.404Z,21.47
2023-12-11T20:15:09.593Z,19.63
2023-12-11T20:17:36.121Z,18.87
2023-12-11T20:20:02.549Z,20.00
2023-12-11T20:22:28.818Z,16.93
2023-12-11T20:24:55.094Z,18.90
2023-12-11T20:27:21.280Z,17.27
2023-12-11T20:29:47.495Z,18.77
2023-12-11T20:32:13.692Z,22.93
2023-12-11T20:34:39.917Z,21.00
2023-12-11T20:37:06.115Z,21.37
2023-12-11T20:39:32.416Z,19.40
2023-12-11T20:41:58.586Z,18.63
2023-12-11T20:44:24.785Z,19.43
2023-12-11T20:46:50.979Z,15.87
2023-12-11T20:49:17.329Z,15.57
2023-12-11T20:51:43.596Z,15.77
2023-12-11T20:54:09.753Z,15.13
2023-12-11T20:56:35.962Z,17.63
2023-12-11T20:59:02.160Z,12.97
2023-12-11T21:01:28.765Z,14.23
2023-12-11T21:03:55.166Z,17.07
2023-12-11T21:06:21.375Z,14.97
2023-12-11T21:08:47.584Z,13.43
2023-12-11T21:11:13.783Z,13.20
2023-12-11T21:13:39.950Z,11.50
2023-12-11T21:16:06.198Z,13.63
2023-12-11T21:18:32.474Z,16.73
2023-12-11T21:20:58.698Z,14.50
2023-12-11T21:23:24.924Z,11.67
2023-12-11T21:25:51.202Z,12.57
2023-12-11T21:28:17.521Z,10.37
2023-12-11T21:30:43.705Z,14.30
2023-12-11T21:33:09.918Z,10.63
2023-12-11T21:35:36.183Z,10.47
2023-12-11T21:38:02.366Z,11.53
2023-12-11T21:40:28.583Z,12.10
2023-12-11T21:42:54.815Z,10.10
2023-12-11T21:45:21.030Z,10.13
2023-12-11T21:47:47.330Z,12.63
2023-12-11T21:50:13.784Z,9.70
2023-12-11T21:52:40.090Z,12.83
2023-12-11T21:55:06.330Z,14.20
2023-12-11T21:57:32.739Z,13.10
2023-12-11T21:59:59.113Z,12.40
2023-12-11T22:02:25.286Z,14.23
2023-12-11T22:04:51.445Z,14.20
2023-12-11T22:07:17.985Z,17.27
2023-12-11T22:09:44.292Z,13.93
2023-12-11T22:12:10.503Z,9.70
2023-12-11T22:14:36.673Z,11.70
2023-12-11T22:17:02.861Z,12.10
2023-12-11T22:19:29.124Z,11.23
2023-12-11T22:21:55.379Z,13.93
2023-12-11T22:24:21.565Z,13.20
2023-12-11T22:26:47.930Z,14.33
2023-12-11T22:29:14.102Z,16.73
2023-12-11T22:31:40.281Z,10.97
2023-12-11T22:34:06.610Z,11.67
2023-12-11T22:36:32.842Z,16.10
2023-12-11T22:38:59.025Z,12.47
2023-12-11T22:41:25.231Z,14.87
2023-12-11T22:43:51.423Z,12.70
2023-12-11T22:46:17.628Z,13.73
2023-12-11T22:48:43.919Z,14.13
2023-12-11T22:51:10.197Z,16.07
2023-12-11T22:53:36.387Z,17.67
2023-12-11T22:56:02.556Z,17.27
2023-12-11T22:58:28.793Z,16.20
2023-12-11T23:00:55.058Z,16.03
2023-12-11T23:03:21.285Z,16.20
2023-12-11T23:05:47.511Z,15.23
2023-12-11T23:08:13.712Z,14.33
2023-12-11T23:10:39.943Z,17.53
2023-12-11T23:13:06.185Z,16.10
2023-12-11T23:15:32.389Z,15.47
2023-12-11T23:17:58.604Z,11.23
2023-12-11T23:20:24.793Z,18.83
2023-12-11T23:22:51.006Z,15.33
2023-12-11T23:25:19.064Z,15.07
2023-12-11T23:27:46.582Z,15.93
2023-12-11T23:30:12.778Z,14.43
2023-12-11T23:32:38.996Z,15.83
2023-12-11T23:35:05.237Z,14.13
2023-12-11T23:37:31.865Z,16.40
2023-12-11T23:39:58.451Z,17.20
2023-12-11T23:42:24.643Z,11.70
2023-12-11T23:44:50.855Z,11.67
2023-12-11T23:47:17.065Z,13.03
2023-12-11T23:49:43.527Z,14.83
2023-12-11T23:52:09.809Z,15.90
2023-12-11T23:54:36.060Z,14.93
2023-12-11T23:57:02.260Z,12.03
2023-12-11T23:59:28.473Z,15.17
